sensor_id;sensor_type;location;lat;lon;timestamp;P1;durP1;ratioP1;P2;durP2;ratioP2
1593;SDS011;790;47.000;16.084;2022-08-19T00:06:18;3.90;;;2.80;;
1593;SDS011;790;47.000;16.084;2022-08-19T00:12:26;5.32;;;2.63;;
1593;SDS011;790;47.000;16.084;2022-08-19T00:18:34;4.05;;;2.63;;
1593;SDS011;790;47.000;16.084;2022-08-19T00:24:43;6.18;;;2.80;;
1593;SDS011;790;47.000;16.084;2022-08-19T00:30:51;3.60;;;2.42;;
1593;SDS011;790;47.000;16.084;2022-08-19T00:36:59;4.03;;;2.63;;
1593;SDS011;790;47.000;16.084;2022-08-19T00:43:09;4.72;;;2.80;;
1593;SDS011;790;47.000;16.084;2022-08-19T00:49:20;5.85;;;3.15;;
1593;SDS011;790;47.000;16.084;2022-08-19T00:55:33;4.82;;;3.00;;
1593;SDS011;790;47.000;16.084;2022-08-19T01:06:07;5.97;;;2.70;;
1593;SDS011;790;47.000;16.084;2022-08-19T01:12:28;4.95;;;2.70;;
1593;SDS011;790;47.000;16.084;2022-08-19T01:18:49;6.50;;;2.75;;
1593;SDS011;790;47.000;16.084;2022-08-19T01:25:12;5.78;;;2.90;;
1593;SDS011;790;47.000;16.084;2022-08-19T01:31:34;4.97;;;3.08;;
1593;SDS011;790;47.000;16.084;2022-08-19T01:37:59;6.43;;;2.83;;
1593;SDS011;790;47.000;16.084;2022-08-19T01:44:22;4.97;;;2.70;;
1593;SDS011;790;47.000;16.084;2022-08-19T01:50:44;5.68;;;2.90;;
1593;SDS011;790;47.000;16.084;2022-08-19T01:57:07;5.40;;;3.10;;
1593;SDS011;790;47.000;16.084;2022-08-19T02:07:57;4.45;;;2.80;;
1593;SDS011;790;47.000;16.084;2022-08-19T02:14:06;3.22;;;2.83;;
1593;SDS011;790;47.000;16.084;2022-08-19T02:20:15;4.18;;;2.67;;
1593;SDS011;790;47.000;16.084;2022-08-19T02:26:25;2.90;;;2.60;;
1593;SDS011;790;47.000;16.084;2022-08-19T02:32:33;4.45;;;3.28;;
1593;SDS011;790;47.000;16.084;2022-08-19T02:38:41;5.28;;;3.25;;
1593;SDS011;790;47.000;16.084;2022-08-19T02:44:50;7.03;;;3.22;;
1593;SDS011;790;47.000;16.084;2022-08-19T02:50:58;5.53;;;3.13;;
1593;SDS011;790;47.000;16.084;2022-08-19T02:57:05;4.82;;;3.40;;
1593;SDS011;790;47.000;16.084;2022-08-19T03:07:30;7.05;;;3.38;;
1593;SDS011;790;47.000;16.084;2022-08-19T03:13:51;5.65;;;3.08;;
1593;SDS011;790;47.000;16.084;2022-08-19T03:20:13;6.80;;;3.50;;
1593;SDS011;790;47.000;16.084;2022-08-19T03:26:39;4.32;;;2.58;;
1593;SDS011;790;47.000;16.084;2022-08-19T03:33:01;4.53;;;3.10;;
1593;SDS011;790;47.000;16.084;2022-08-19T03:39:22;5.00;;;3.05;;
1593;SDS011;790;47.000;16.084;2022-08-19T03:45:46;3.90;;;2.72;;
1593;SDS011;790;47.000;16.084;2022-08-19T03:52:08;4.82;;;3.13;;
1593;SDS011;790;47.000;16.084;2022-08-19T03:58:29;5.95;;;3.63;;
1593;SDS011;790;47.000;16.084;2022-08-19T04:09:17;6.95;;;3.38;;
1593;SDS011;790;47.000;16.084;2022-08-19T04:15:25;6.07;;;3.17;;
1593;SDS011;790;47.000;16.084;2022-08-19T04:21:34;5.03;;;3.30;;
1593;SDS011;790;47.000;16.084;2022-08-19T04:27:44;3.33;;;2.90;;
1593;SDS011;790;47.000;16.084;2022-08-19T04:33:52;5.07;;;3.35;;
1593;SDS011;790;47.000;16.084;2022-08-19T04:40:00;5.95;;;3.50;;
1593;SDS011;790;47.000;16.084;2022-08-19T04:46:26;4.97;;;3.10;;
1593;SDS011;790;47.000;16.084;2022-08-19T04:52:36;6.35;;;3.25;;
1593;SDS011;790;47.000;16.084;2022-08-19T04:58:48;11.05;;;3.80;;
1593;SDS011;790;47.000;16.084;2022-08-19T05:09:23;9.10;;;3.05;;
1593;SDS011;790;47.000;16.084;2022-08-19T05:15:52;7.70;;;3.10;;
1593;SDS011;790;47.000;16.084;2022-08-19T05:22:14;7.03;;;3.50;;
1593;SDS011;790;47.000;16.084;2022-08-19T05:28:56;9.57;;;3.72;;
1593;SDS011;790;47.000;16.084;2022-08-19T05:35:16;6.32;;;3.17;;
1593;SDS011;790;47.000;16.084;2022-08-19T05:41:40;7.40;;;3.80;;
1593;SDS011;790;47.000;16.084;2022-08-19T05:48:04;6.47;;;3.70;;
1593;SDS011;790;47.000;16.084;2022-08-19T05:54:25;13.13;;;3.60;;
1593;SDS011;790;47.000;16.084;2022-08-19T06:00:46;5.47;;;3.25;;
1593;SDS011;790;47.000;16.084;2022-08-19T06:11:35;4.55;;;3.33;;
1593;SDS011;790;47.000;16.084;2022-08-19T06:17:44;6.57;;;3.78;;
1593;SDS011;790;47.000;16.084;2022-08-19T06:23:51;14.27;;;4.47;;
1593;SDS011;790;47.000;16.084;2022-08-19T06:30:02;8.50;;;3.90;;
1593;SDS011;790;47.000;16.084;2022-08-19T06:36:16;6.18;;;3.78;;
1593;SDS011;790;47.000;16.084;2022-08-19T06:42:25;8.95;;;4.07;;
1593;SDS011;790;47.000;16.084;2022-08-19T06:48:34;6.43;;;3.88;;
1593;SDS011;790;47.000;16.084;2022-08-19T06:54:42;11.40;;;4.38;;
1593;SDS011;790;47.000;16.084;2022-08-19T07:00:50;5.88;;;3.67;;
1593;SDS011;790;47.000;16.084;2022-08-19T07:11:15;8.77;;;4.05;;
1593;SDS011;790;47.000;16.084;2022-08-19T07:17:38;7.97;;;3.80;;
1593;SDS011;790;47.000;16.084;2022-08-19T07:24:00;6.95;;;3.65;;
1593;SDS011;790;47.000;16.084;2022-08-19T07:30:23;6.78;;;3.97;;
1593;SDS011;790;47.000;16.084;2022-08-19T07:36:44;6.30;;;3.50;;
1593;SDS011;790;47.000;16.084;2022-08-19T07:43:06;9.80;;;7.25;;
1593;SDS011;790;47.000;16.084;2022-08-19T07:49:29;8.25;;;4.95;;
1593;SDS011;790;47.000;16.084;2022-08-19T07:55:51;8.23;;;4.40;;
1593;SDS011;790;47.000;16.084;2022-08-19T08:02:12;9.48;;;4.95;;
1593;SDS011;790;47.000;16.084;2022-08-19T08:12:59;8.38;;;3.83;;
1593;SDS011;790;47.000;16.084;2022-08-19T08:19:07;7.95;;;4.20;;
1593;SDS011;790;47.000;16.084;2022-08-19T08:25:16;6.20;;;3.80;;
1593;SDS011;790;47.000;16.084;2022-08-19T08:31:27;7.00;;;4.32;;
1593;SDS011;790;47.000;16.084;2022-08-19T08:37:35;7.18;;;3.65;;
1593;SDS011;790;47.000;16.084;2022-08-19T08:43:44;12.98;;;7.50;;
1593;SDS011;790;47.000;16.084;2022-08-19T08:49:54;9.98;;;4.95;;
1593;SDS011;790;47.000;16.084;2022-08-19T08:56:06;7.72;;;4.22;;
1593;SDS011;790;47.000;16.084;2022-08-19T09:02:18;8.00;;;4.00;;
1593;SDS011;790;47.000;16.084;2022-08-19T09:12:43;7.30;;;4.53;;
1593;SDS011;790;47.000;16.084;2022-08-19T09:19:21;8.10;;;5.07;;
1593;SDS011;790;47.000;16.084;2022-08-19T09:25:42;6.85;;;3.88;;
1593;SDS011;790;47.000;16.084;2022-08-19T09:32:05;9.40;;;4.53;;
1593;SDS011;790;47.000;16.084;2022-08-19T09:38:26;8.55;;;4.55;;
1593;SDS011;790;47.000;16.084;2022-08-19T09:44:47;7.13;;;4.10;;
1593;SDS011;790;47.000;16.084;2022-08-19T09:51:10;8.93;;;4.40;;
1593;SDS011;790;47.000;16.084;2022-08-19T09:57:35;7.72;;;5.00;;
1593;SDS011;790;47.000;16.084;2022-08-19T10:03:57;9.93;;;5.70;;
1593;SDS011;790;47.000;16.084;2022-08-19T10:14:47;5.90;;;4.50;;
1593;SDS011;790;47.000;16.084;2022-08-19T10:21:02;7.63;;;4.90;;
1593;SDS011;790;47.000;16.084;2022-08-19T10:27:14;8.60;;;4.85;;
1593;SDS011;790;47.000;16.084;2022-08-19T10:33:23;7.88;;;4.75;;
1593;SDS011;790;47.000;16.084;2022-08-19T10:39:32;9.82;;;5.25;;
1593;SDS011;790;47.000;16.084;2022-08-19T10:45:41;13.60;;;5.10;;
1593;SDS011;790;47.000;16.084;2022-08-19T10:51:52;7.43;;;3.83;;
1593;SDS011;790;47.000;16.084;2022-08-19T10:58:18;9.25;;;4.47;;
1593;SDS011;790;47.000;16.084;2022-08-19T11:04:29;5.40;;;3.95;;
1593;SDS011;790;47.000;16.084;2022-08-19T11:15:03;6.15;;;4.15;;
1593;SDS011;790;47.000;16.084;2022-08-19T11:21:25;6.35;;;4.00;;
1593;SDS011;790;47.000;16.084;2022-08-19T11:27:47;9.40;;;4.25;;
1593;SDS011;790;47.000;16.084;2022-08-19T11:34:14;8.57;;;4.43;;
1593;SDS011;790;47.000;16.084;2022-08-19T11:40:38;6.50;;;3.47;;
1593;SDS011;790;47.000;16.084;2022-08-19T11:47:00;8.13;;;3.63;;
1593;SDS011;790;47.000;16.084;2022-08-19T11:53:23;7.47;;;3.58;;
1593;SDS011;790;47.000;16.084;2022-08-19T11:59:47;7.53;;;2.92;;
1593;SDS011;790;47.000;16.084;2022-08-19T12:06:10;10.15;;;2.78;;
1593;SDS011;790;47.000;16.084;2022-08-19T12:16:59;7.53;;;2.67;;
1593;SDS011;790;47.000;16.084;2022-08-19T12:23:08;4.95;;;2.70;;
1593;SDS011;790;47.000;16.084;2022-08-19T12:29:17;6.30;;;2.35;;
1593;SDS011;790;47.000;16.084;2022-08-19T12:35:26;4.40;;;2.40;;
1593;SDS011;790;47.000;16.084;2022-08-19T12:41:34;4.88;;;2.65;;
1593;SDS011;790;47.000;16.084;2022-08-19T12:47:42;4.50;;;2.45;;
1593;SDS011;790;47.000;16.084;2022-08-19T12:53:53;5.25;;;2.67;;
1593;SDS011;790;47.000;16.084;2022-08-19T13:00:03;7.28;;;2.50;;
1593;SDS011;790;47.000;16.084;2022-08-19T13:06:15;7.45;;;2.70;;
1593;SDS011;790;47.000;16.084;2022-08-19T13:16:40;3.47;;;2.70;;
1593;SDS011;790;47.000;16.084;2022-08-19T13:22:48;8.00;;;3.28;;
1593;SDS011;790;47.000;16.084;2022-08-19T13:28:56;6.80;;;2.85;;
1593;SDS011;790;47.000;16.084;2022-08-19T13:35:23;7.97;;;3.50;;
1593;SDS011;790;47.000;16.084;2022-08-19T13:41:31;9.90;;;3.15;;
1593;SDS011;790;47.000;16.084;2022-08-19T13:47:39;7.13;;;2.60;;
1593;SDS011;790;47.000;16.084;2022-08-19T13:53:51;4.53;;;2.88;;
1593;SDS011;790;47.000;16.084;2022-08-19T14:00:01;3.85;;;2.47;;
1593;SDS011;790;47.000;16.084;2022-08-19T14:06:10;7.50;;;3.45;;
1593;SDS011;790;47.000;16.084;2022-08-19T14:16:24;6.22;;;3.03;;
1593;SDS011;790;47.000;16.084;2022-08-19T14:22:47;9.15;;;3.15;;
1593;SDS011;790;47.000;16.084;2022-08-19T14:29:08;10.18;;;3.53;;
1593;SDS011;790;47.000;16.084;2022-08-19T14:35:32;12.40;;;3.97;;
1593;SDS011;790;47.000;16.084;2022-08-19T14:41:55;8.40;;;3.50;;
1593;SDS011;790;47.000;16.084;2022-08-19T14:48:17;9.18;;;3.17;;
1593;SDS011;790;47.000;16.084;2022-08-19T14:54:42;10.27;;;3.05;;
1593;SDS011;790;47.000;16.084;2022-08-19T15:01:03;9.57;;;3.13;;
1593;SDS011;790;47.000;16.084;2022-08-19T15:07:24;8.15;;;3.00;;
1593;SDS011;790;47.000;16.084;2022-08-19T15:18:01;10.50;;;2.92;;
1593;SDS011;790;47.000;16.084;2022-08-19T15:24:10;7.97;;;2.83;;
1593;SDS011;790;47.000;16.084;2022-08-19T15:30:19;7.07;;;2.97;;
1593;SDS011;790;47.000;16.084;2022-08-19T15:36:30;10.38;;;3.42;;
1593;SDS011;790;47.000;16.084;2022-08-19T15:42:38;9.30;;;3.08;;
1593;SDS011;790;47.000;16.084;2022-08-19T15:48:48;5.68;;;2.63;;
1593;SDS011;790;47.000;16.084;2022-08-19T15:55:19;8.75;;;3.85;;
1593;SDS011;790;47.000;16.084;2022-08-19T16:01:28;8.90;;;3.33;;
1593;SDS011;790;47.000;16.084;2022-08-19T16:07:54;7.38;;;3.17;;
1593;SDS011;790;47.000;16.084;2022-08-19T16:18:28;11.48;;;3.70;;
1593;SDS011;790;47.000;16.084;2022-08-19T16:24:50;9.00;;;3.20;;
1593;SDS011;790;47.000;16.084;2022-08-19T16:31:12;8.63;;;3.65;;
1593;SDS011;790;47.000;16.084;2022-08-19T16:37:35;6.55;;;3.03;;
1593;SDS011;790;47.000;16.084;2022-08-19T16:43:56;7.88;;;3.47;;
1593;SDS011;790;47.000;16.084;2022-08-19T16:50:18;6.38;;;3.25;;
1593;SDS011;790;47.000;16.084;2022-08-19T16:56:43;6.00;;;3.30;;
1593;SDS011;790;47.000;16.084;2022-08-19T17:03:06;8.38;;;3.70;;
1593;SDS011;790;47.000;16.084;2022-08-19T17:09:30;8.98;;;3.75;;
1593;SDS011;790;47.000;16.084;2022-08-19T17:20:17;9.45;;;3.40;;
1593;SDS011;790;47.000;16.084;2022-08-19T17:26:25;6.40;;;3.28;;
1593;SDS011;790;47.000;16.084;2022-08-19T17:32:33;6.22;;;3.63;;
1593;SDS011;790;47.000;16.084;2022-08-19T17:38:42;12.52;;;3.85;;
1593;SDS011;790;47.000;16.084;2022-08-19T17:44:49;10.00;;;3.72;;
1593;SDS011;790;47.000;16.084;2022-08-19T17:50:57;8.68;;;3.92;;
1593;SDS011;790;47.000;16.084;2022-08-19T17:57:08;7.53;;;4.28;;
1593;SDS011;790;47.000;16.084;2022-08-19T18:03:16;5.90;;;3.63;;
1593;SDS011;790;47.000;16.084;2022-08-19T18:09:24;6.72;;;3.70;;
1593;SDS011;790;47.000;16.084;2022-08-19T18:19:50;8.00;;;3.78;;
1593;SDS011;790;47.000;16.084;2022-08-19T18:26:12;6.88;;;3.90;;
1593;SDS011;790;47.000;16.084;2022-08-19T18:32:34;8.32;;;4.55;;
1593;SDS011;790;47.000;16.084;2022-08-19T18:38:58;9.07;;;3.95;;
1593;SDS011;790;47.000;16.084;2022-08-19T18:45:37;7.75;;;4.07;;
1593;SDS011;790;47.000;16.084;2022-08-19T18:52:17;9.25;;;4.13;;
1593;SDS011;790;47.000;16.084;2022-08-19T18:58:41;8.15;;;3.70;;
1593;SDS011;790;47.000;16.084;2022-08-19T19:05:04;8.07;;;4.18;;
1593;SDS011;790;47.000;16.084;2022-08-19T19:11:26;11.90;;;4.85;;
1593;SDS011;790;47.000;16.084;2022-08-19T19:22:26;11.00;;;3.85;;
1593;SDS011;790;47.000;16.084;2022-08-19T19:28:35;6.00;;;4.40;;
1593;SDS011;790;47.000;16.084;2022-08-19T19:34:48;8.10;;;4.63;;
1593;SDS011;790;47.000;16.084;2022-08-19T19:40:58;9.23;;;4.65;;
1593;SDS011;790;47.000;16.084;2022-08-19T19:47:06;10.25;;;4.97;;
1593;SDS011;790;47.000;16.084;2022-08-19T19:53:16;9.23;;;4.70;;
1593;SDS011;790;47.000;16.084;2022-08-19T19:59:25;10.23;;;4.50;;
1593;SDS011;790;47.000;16.084;2022-08-19T20:05:33;7.70;;;4.25;;
1593;SDS011;790;47.000;16.084;2022-08-19T20:11:42;10.00;;;4.07;;
1593;SDS011;790;47.000;16.084;2022-08-19T20:22:17;5.70;;;4.10;;
1593;SDS011;790;47.000;16.084;2022-08-19T20:28:39;8.65;;;4.05;;
1593;SDS011;790;47.000;16.084;2022-08-19T20:35:00;9.93;;;4.32;;
1593;SDS011;790;47.000;16.084;2022-08-19T20:41:23;10.23;;;5.13;;
1593;SDS011;790;47.000;16.084;2022-08-19T20:47:45;6.28;;;4.13;;
1593;SDS011;790;47.000;16.084;2022-08-19T20:54:07;7.07;;;4.57;;
1593;SDS011;790;47.000;16.084;2022-08-19T21:00:30;10.65;;;5.90;;
1593;SDS011;790;47.000;16.084;2022-08-19T21:06:53;11.38;;;5.38;;
1593;SDS011;790;47.000;16.084;2022-08-19T21:13:14;10.93;;;4.93;;
1593;SDS011;790;47.000;16.084;2022-08-19T21:24:01;11.98;;;4.57;;
1593;SDS011;790;47.000;16.084;2022-08-19T21:30:10;6.95;;;4.68;;
1593;SDS011;790;47.000;16.084;2022-08-19T21:36:19;8.50;;;4.25;;
1593;SDS011;790;47.000;16.084;2022-08-19T21:42:28;8.30;;;4.80;;
1593;SDS011;790;47.000;16.084;2022-08-19T21:48:36;12.93;;;4.70;;
1593;SDS011;790;47.000;16.084;2022-08-19T21:54:44;8.20;;;4.80;;
1593;SDS011;790;47.000;16.084;2022-08-19T22:00:52;11.27;;;4.40;;
1593;SDS011;790;47.000;16.084;2022-08-19T22:07:00;7.05;;;4.63;;
1593;SDS011;790;47.000;16.084;2022-08-19T22:13:08;10.00;;;4.50;;
1593;SDS011;790;47.000;16.084;2022-08-19T22:23:31;8.15;;;4.60;;
1593;SDS011;790;47.000;16.084;2022-08-19T22:29:53;7.68;;;4.82;;
1593;SDS011;790;47.000;16.084;2022-08-19T22:36:14;7.97;;;4.35;;
1593;SDS011;790;47.000;16.084;2022-08-19T22:42:49;7.50;;;4.63;;
1593;SDS011;790;47.000;16.084;2022-08-19T22:49:38;12.52;;;5.05;;
1593;SDS011;790;47.000;16.084;2022-08-19T22:55:59;12.25;;;4.97;;
1593;SDS011;790;47.000;16.084;2022-08-19T23:02:22;10.13;;;5.03;;
1593;SDS011;790;47.000;16.084;2022-08-19T23:08:46;8.60;;;4.68;;
1593;SDS011;790;47.000;16.084;2022-08-19T23:15:08;13.45;;;4.43;;
1593;SDS011;790;47.000;16.084;2022-08-19T23:26:08;11.25;;;4.32;;
1593;SDS011;790;47.000;16.084;2022-08-19T23:32:17;11.13;;;4.40;;
1593;SDS011;790;47.000;16.084;2022-08-19T23:38:27;6.80;;;3.75;;
1593;SDS011;790;47.000;16.084;2022-08-19T23:44:38;8.48;;;4.70;;
1593;SDS011;790;47.000;16.084;2022-08-19T23:50:46;6.95;;;4.25;;
1593;SDS011;790;47.000;16.084;2022-08-19T23:56:54;8.55;;;4.45;;
